sensor_id;sensor_type;location;lat;lon;timestamp;P1;durP1;ratioP1;P2;durP2;ratioP2
16669;SDS011;8448;52.034;5.158;2023-11-21T00:00:15;23.10;;;12.20;;
16669;SDS011;8448;52.034;5.158;2023-11-21T00:02:43;23.13;;;12.40;;
16669;SDS011;8448;52.034;5.158;2023-11-21T00:05:11;19.97;;;11.33;;
16669;SDS011;8448;52.034;5.158;2023-11-21T00:07:40;22.40;;;12.37;;
16669;SDS011;8448;52.034;5.158;2023-11-21T00:10:08;21.97;;;11.50;;
16669;SDS011;8448;52.034;5.158;2023-11-21T00:12:36;21.90;;;12.03;;
16669;SDS011;8448;52.034;5.158;2023-11-21T00:15:07;22.57;;;12.13;;
16669;SDS011;8448;52.034;5.158;2023-11-21T00:17:37;25.20;;;11.97;;
16669;SDS011;8448;52.034;5.158;2023-11-21T00:20:05;25.03;;;11.50;;
16669;SDS011;8448;52.034;5.158;2023-11-21T00:22:33;20.53;;;12.17;;
16669;SDS011;8448;52.034;5.158;2023-11-21T00:25:01;21.77;;;11.70;;
16669;SDS011;8448;52.034;5.158;2023-11-21T00:27:29;20.13;;;11.37;;
16669;SDS011;8448;52.034;5.158;2023-11-21T00:29:56;17.77;;;10.93;;
16669;SDS011;8448;52.034;5.158;2023-11-21T00:32:23;19.53;;;11.20;;
16669;SDS011;8448;52.034;5.158;2023-11-21T00:34:52;20.77;;;11.67;;
16669;SDS011;8448;52.034;5.158;2023-11-21T00:37:20;21.30;;;11.30;;
16669;SDS011;8448;52.034;5.158;2023-11-21T00:39:49;18.67;;;11.33;;
16669;SDS011;8448;52.034;5.158;2023-11-21T00:42:16;23.13;;;11.30;;
16669;SDS011;8448;52.034;5.158;2023-11-21T00:44:44;20.40;;;11.13;;
16669;SDS011;8448;52.034;5.158;2023-11-21T00:47:11;18.67;;;10.80;;
16669;SDS011;8448;52.034;5.158;2023-11-21T00:49:39;21.37;;;11.20;;
16669;SDS011;8448;52.034;5.158;2023-11-21T00:52:09;17.13;;;10.67;;
16669;SDS011;8448;52.034;5.158;2023-11-21T00:54:36;19.90;;;10.93;;
16669;SDS011;8448;52.034;5.158;2023-11-21T00:57:04;21.33;;;11.53;;
16669;SDS011;8448;52.034;5.158;2023-11-21T00:59:31;20.77;;;11.80;;
16669;SDS011;8448;52.034;5.158;2023-11-21T01:01:58;18.40;;;10.07;;
16669;SDS011;8448;52.034;5.158;2023-11-21T01:04:27;21.53;;;10.90;;
16669;SDS011;8448;52.034;5.158;2023-11-21T01:06:54;18.97;;;10.33;;
16669;SDS011;8448;52.034;5.158;2023-11-21T01:09:23;23.00;;;10.77;;
16669;SDS011;8448;52.034;5.158;2023-11-21T01:11:51;17.77;;;10.43;;
16669;SDS011;8448;52.034;5.158;2023-11-21T01:14:18;19.10;;;9.90;;
16669;SDS011;8448;52.034;5.158;2023-11-21T01:16:46;18.90;;;10.33;;
16669;SDS011;8448;52.034;5.158;2023-11-21T01:19:14;18.47;;;9.87;;
16669;SDS011;8448;52.034;5.158;2023-11-21T01:21:41;18.50;;;10.43;;
16669;SDS011;8448;52.034;5.158;2023-11-21T01:24:08;18.67;;;10.37;;
16669;SDS011;8448;52.034;5.158;2023-11-21T01:26:37;18.70;;;10.60;;
16669;SDS011;8448;52.034;5.158;2023-11-21T01:29:04;17.10;;;9.80;;
16669;SDS011;8448;52.034;5.158;2023-11-21T01:31:32;19.57;;;9.73;;
16669;SDS011;8448;52.034;5.158;2023-11-21T01:33:59;18.73;;;10.20;;
16669;SDS011;8448;52.034;5.158;2023-11-21T01:36:29;20.77;;;11.10;;
16669;SDS011;8448;52.034;5.158;2023-11-21T01:38:58;19.50;;;10.87;;
16669;SDS011;8448;52.034;5.158;2023-11-21T01:41:25;18.40;;;10.67;;
16669;SDS011;8448;52.034;5.158;2023-11-21T01:43:54;23.80;;;10.87;;
16669;SDS011;8448;52.034;5.158;2023-11-21T01:46:22;20.50;;;11.43;;
16669;SDS011;8448;52.034;5.158;2023-11-21T01:48:51;17.70;;;10.33;;
16669;SDS011;8448;52.034;5.158;2023-11-21T01:51:19;18.13;;;9.43;;
16669;SDS011;8448;52.034;5.158;2023-11-21T01:53:47;16.07;;;9.40;;
16669;SDS011;8448;52.034;5.158;2023-11-21T01:56:15;17.23;;;10.67;;
16669;SDS011;8448;52.034;5.158;2023-11-21T01:58:43;16.80;;;9.80;;
16669;SDS011;8448;52.034;5.158;2023-11-21T02:01:13;16.97;;;9.70;;
16669;SDS011;8448;52.034;5.158;2023-11-21T02:03:40;15.30;;;9.90;;
16669;SDS011;8448;52.034;5.158;2023-11-21T02:06:08;15.73;;;9.70;;
16669;SDS011;8448;52.034;5.158;2023-11-21T02:08:35;15.23;;;9.80;;
16669;SDS011;8448;52.034;5.158;2023-11-21T02:11:03;15.07;;;9.77;;
16669;SDS011;8448;52.034;5.158;2023-11-21T02:13:31;15.47;;;10.17;;
16669;SDS011;8448;52.034;5.158;2023-11-21T02:15:58;17.83;;;9.97;;
16669;SDS011;8448;52.034;5.158;2023-11-21T02:18:27;17.70;;;10.50;;
16669;SDS011;8448;52.034;5.158;2023-11-21T02:20:55;14.00;;;8.90;;
16669;SDS011;8448;52.034;5.158;2023-11-21T02:23:24;17.30;;;10.50;;
16669;SDS011;8448;52.034;5.158;2023-11-21T02:25:54;15.40;;;9.90;;
16669;SDS011;8448;52.034;5.158;2023-11-21T02:28:21;14.87;;;9.97;;
16669;SDS011;8448;52.034;5.158;2023-11-21T02:30:51;12.70;;;9.00;;
16669;SDS011;8448;52.034;5.158;2023-11-21T02:33:20;15.73;;;10.00;;
16669;SDS011;8448;52.034;5.158;2023-11-21T02:35:48;14.93;;;9.83;;
16669;SDS011;8448;52.034;5.158;2023-11-21T02:38:18;15.13;;;9.63;;
16669;SDS011;8448;52.034;5.158;2023-11-21T02:40:47;15.43;;;10.27;;
16669;SDS011;8448;52.034;5.158;2023-11-21T02:43:15;17.97;;;9.90;;
16669;SDS011;8448;52.034;5.158;2023-11-21T02:45:42;16.63;;;10.60;;
16669;SDS011;8448;52.034;5.158;2023-11-21T02:48:10;16.13;;;9.83;;
16669;SDS011;8448;52.034;5.158;2023-11-21T02:50:37;15.23;;;10.13;;
16669;SDS011;8448;52.034;5.158;2023-11-21T02:53:04;13.80;;;9.40;;
16669;SDS011;8448;52.034;5.158;2023-11-21T02:55:32;12.77;;;9.00;;
16669;SDS011;8448;52.034;5.158;2023-11-21T02:58:02;13.50;;;9.10;;
16669;SDS011;8448;52.034;5.158;2023-11-21T03:00:29;13.90;;;9.60;;
16669;SDS011;8448;52.034;5.158;2023-11-21T03:02:57;15.47;;;10.70;;
16669;SDS011;8448;52.034;5.158;2023-11-21T03:05:25;14.63;;;9.53;;
16669;SDS011;8448;52.034;5.158;2023-11-21T03:07:54;15.67;;;10.50;;
16669;SDS011;8448;52.034;5.158;2023-11-21T03:10:21;17.00;;;9.97;;
16669;SDS011;8448;52.034;5.158;2023-11-21T03:12:49;14.53;;;9.67;;
16669;SDS011;8448;52.034;5.158;2023-11-21T03:15:17;17.97;;;11.33;;
16669;SDS011;8448;52.034;5.158;2023-11-21T03:17:45;13.87;;;9.63;;
16669;SDS011;8448;52.034;5.158;2023-11-21T03:20:14;13.60;;;9.13;;
16669;SDS011;8448;52.034;5.158;2023-11-21T03:22:41;16.13;;;9.70;;
16669;SDS011;8448;52.034;5.158;2023-11-21T03:25:09;13.67;;;9.47;;
16669;SDS011;8448;52.034;5.158;2023-11-21T03:27:37;16.77;;;9.97;;
16669;SDS011;8448;52.034;5.158;2023-11-21T03:30:07;15.50;;;9.60;;
16669;SDS011;8448;52.034;5.158;2023-11-21T03:32:37;16.87;;;10.77;;
16669;SDS011;8448;52.034;5.158;2023-11-21T03:35:05;17.30;;;10.33;;
16669;SDS011;8448;52.034;5.158;2023-11-21T03:37:32;13.80;;;8.93;;
16669;SDS011;8448;52.034;5.158;2023-11-21T03:40:00;18.20;;;10.30;;
16669;SDS011;8448;52.034;5.158;2023-11-21T03:42:29;18.73;;;10.67;;
16669;SDS011;8448;52.034;5.158;2023-11-21T03:44:56;20.00;;;11.00;;
16669;SDS011;8448;52.034;5.158;2023-11-21T03:47:23;19.27;;;11.30;;
16669;SDS011;8448;52.034;5.158;2023-11-21T03:49:53;16.10;;;9.47;;
16669;SDS011;8448;52.034;5.158;2023-11-21T03:52:20;17.07;;;10.07;;
16669;SDS011;8448;52.034;5.158;2023-11-21T03:54:48;18.83;;;11.07;;
16669;SDS011;8448;52.034;5.158;2023-11-21T03:57:15;17.50;;;10.57;;
16669;SDS011;8448;52.034;5.158;2023-11-21T03:59:43;17.60;;;10.57;;
16669;SDS011;8448;52.034;5.158;2023-11-21T04:02:10;16.60;;;9.53;;
16669;SDS011;8448;52.034;5.158;2023-11-21T04:04:37;21.37;;;11.40;;
16669;SDS011;8448;52.034;5.158;2023-11-21T04:07:07;17.13;;;9.83;;
16669;SDS011;8448;52.034;5.158;2023-11-21T04:09:34;17.97;;;10.13;;
16669;SDS011;8448;52.034;5.158;2023-11-21T04:12:01;17.93;;;10.47;;
16669;SDS011;8448;52.034;5.158;2023-11-21T04:14:29;19.50;;;10.97;;
16669;SDS011;8448;52.034;5.158;2023-11-21T04:16:56;20.80;;;11.03;;
16669;SDS011;8448;52.034;5.158;2023-11-21T04:19:24;18.67;;;10.60;;
16669;SDS011;8448;52.034;5.158;2023-11-21T04:21:51;18.07;;;10.23;;
16669;SDS011;8448;52.034;5.158;2023-11-21T04:24:20;24.17;;;11.83;;
16669;SDS011;8448;52.034;5.158;2023-11-21T04:26:47;20.27;;;10.93;;
16669;SDS011;8448;52.034;5.158;2023-11-21T04:29:15;20.20;;;10.73;;
16669;SDS011;8448;52.034;5.158;2023-11-21T04:31:42;22.97;;;12.23;;
16669;SDS011;8448;52.034;5.158;2023-11-21T04:34:09;24.07;;;11.63;;
16669;SDS011;8448;52.034;5.158;2023-11-21T04:36:37;21.87;;;11.87;;
16669;SDS011;8448;52.034;5.158;2023-11-21T04:39:05;23.30;;;11.90;;
16669;SDS011;8448;52.034;5.158;2023-11-21T04:41:34;21.40;;;11.83;;
16669;SDS011;8448;52.034;5.158;2023-11-21T04:44:01;20.13;;;11.47;;
16669;SDS011;8448;52.034;5.158;2023-11-21T04:46:30;18.83;;;11.17;;
16669;SDS011;8448;52.034;5.158;2023-11-21T04:48:57;16.77;;;9.70;;
16669;SDS011;8448;52.034;5.158;2023-11-21T04:51:24;16.67;;;10.47;;
16669;SDS011;8448;52.034;5.158;2023-11-21T04:53:52;17.00;;;10.10;;
16669;SDS011;8448;52.034;5.158;2023-11-21T04:56:19;16.43;;;9.17;;
16669;SDS011;8448;52.034;5.158;2023-11-21T04:58:48;17.63;;;9.17;;
16669;SDS011;8448;52.034;5.158;2023-11-21T05:01:15;18.60;;;9.47;;
16669;SDS011;8448;52.034;5.158;2023-11-21T05:03:42;14.63;;;8.80;;
16669;SDS011;8448;52.034;5.158;2023-11-21T05:06:12;16.10;;;8.70;;
16669;SDS011;8448;52.034;5.158;2023-11-21T05:08:39;15.27;;;8.93;;
16669;SDS011;8448;52.034;5.158;2023-11-21T05:11:07;19.93;;;11.20;;
16669;SDS011;8448;52.034;5.158;2023-11-21T05:13:35;17.30;;;9.10;;
16669;SDS011;8448;52.034;5.158;2023-11-21T05:16:05;20.60;;;10.40;;
16669;SDS011;8448;52.034;5.158;2023-11-21T05:18:33;18.17;;;10.43;;
16669;SDS011;8448;52.034;5.158;2023-11-21T05:21:00;19.43;;;10.33;;
16669;SDS011;8448;52.034;5.158;2023-11-21T05:23:28;27.05;;;15.13;;
16669;SDS011;8448;52.034;5.158;2023-11-21T05:25:55;25.10;;;11.83;;
16669;SDS011;8448;52.034;5.158;2023-11-21T05:28:23;20.53;;;11.70;;
16669;SDS011;8448;52.034;5.158;2023-11-21T05:30:50;21.00;;;11.17;;
16669;SDS011;8448;52.034;5.158;2023-11-21T05:33:19;21.10;;;11.27;;
16669;SDS011;8448;52.034;5.158;2023-11-21T05:35:47;17.17;;;9.63;;
16669;SDS011;8448;52.034;5.158;2023-11-21T05:38:14;23.73;;;11.87;;
16669;SDS011;8448;52.034;5.158;2023-11-21T05:40:41;18.03;;;10.53;;
16669;SDS011;8448;52.034;5.158;2023-11-21T05:43:09;20.53;;;10.90;;
16669;SDS011;8448;52.034;5.158;2023-11-21T05:45:37;21.53;;;10.63;;
16669;SDS011;8448;52.034;5.158;2023-11-21T05:48:04;15.60;;;9.60;;
16669;SDS011;8448;52.034;5.158;2023-11-21T05:50:33;19.80;;;10.37;;
16669;SDS011;8448;52.034;5.158;2023-11-21T05:53:02;21.57;;;10.30;;
16669;SDS011;8448;52.034;5.158;2023-11-21T05:55:30;19.77;;;10.63;;
16669;SDS011;8448;52.034;5.158;2023-11-21T05:57:58;23.00;;;10.83;;
16669;SDS011;8448;52.034;5.158;2023-11-21T06:00:25;18.43;;;10.53;;
16669;SDS011;8448;52.034;5.158;2023-11-21T06:02:53;22.13;;;11.80;;
16669;SDS011;8448;52.034;5.158;2023-11-21T06:05:22;22.23;;;11.70;;
16669;SDS011;8448;52.034;5.158;2023-11-21T06:07:52;25.27;;;11.50;;
16669;SDS011;8448;52.034;5.158;2023-11-21T06:10:21;23.80;;;11.77;;
16669;SDS011;8448;52.034;5.158;2023-11-21T06:12:49;27.00;;;10.83;;
16669;SDS011;8448;52.034;5.158;2023-11-21T06:15:16;26.23;;;11.60;;
16669;SDS011;8448;52.034;5.158;2023-11-21T06:17:46;25.83;;;11.20;;
16669;SDS011;8448;52.034;5.158;2023-11-21T06:20:19;24.70;;;11.83;;
16669;SDS011;8448;52.034;5.158;2023-11-21T06:22:48;23.77;;;12.80;;
16669;SDS011;8448;52.034;5.158;2023-11-21T06:25:17;23.20;;;11.57;;
16669;SDS011;8448;52.034;5.158;2023-11-21T06:27:45;22.67;;;11.07;;
16669;SDS011;8448;52.034;5.158;2023-11-21T06:30:13;25.27;;;11.87;;
16669;SDS011;8448;52.034;5.158;2023-11-21T06:32:41;25.43;;;11.87;;
16669;SDS011;8448;52.034;5.158;2023-11-21T06:35:10;22.03;;;10.97;;
16669;SDS011;8448;52.034;5.158;2023-11-21T06:37:38;21.77;;;11.90;;
16669;SDS011;8448;52.034;5.158;2023-11-21T06:40:06;20.40;;;10.40;;
16669;SDS011;8448;52.034;5.158;2023-11-21T06:42:36;21.53;;;11.70;;
16669;SDS011;8448;52.034;5.158;2023-11-21T06:45:04;21.57;;;11.03;;
16669;SDS011;8448;52.034;5.158;2023-11-21T06:47:32;24.00;;;12.13;;
16669;SDS011;8448;52.034;5.158;2023-11-21T06:50:00;21.50;;;11.83;;
16669;SDS011;8448;52.034;5.158;2023-11-21T06:52:27;23.23;;;10.93;;
16669;SDS011;8448;52.034;5.158;2023-11-21T06:54:54;22.03;;;11.20;;
16669;SDS011;8448;52.034;5.158;2023-11-21T06:57:22;20.70;;;10.87;;
16669;SDS011;8448;52.034;5.158;2023-11-21T06:59:51;17.50;;;11.07;;
16669;SDS011;8448;52.034;5.158;2023-11-21T07:02:18;17.57;;;10.63;;
16669;SDS011;8448;52.034;5.158;2023-11-21T07:04:46;27.23;;;11.90;;
16669;SDS011;8448;52.034;5.158;2023-11-21T07:07:13;22.37;;;12.43;;
16669;SDS011;8448;52.034;5.158;2023-11-21T07:09:40;22.87;;;11.83;;
16669;SDS011;8448;52.034;5.158;2023-11-21T07:12:08;20.23;;;10.50;;
16669;SDS011;8448;52.034;5.158;2023-11-21T07:14:36;24.63;;;11.50;;
16669;SDS011;8448;52.034;5.158;2023-11-21T07:17:06;24.38;;;13.40;;
16669;SDS011;8448;52.034;5.158;2023-11-21T07:19:33;19.70;;;11.87;;
16669;SDS011;8448;52.034;5.158;2023-11-21T07:22:00;21.60;;;11.03;;
16669;SDS011;8448;52.034;5.158;2023-11-21T07:24:28;20.60;;;11.23;;
16669;SDS011;8448;52.034;5.158;2023-11-21T07:26:57;22.87;;;12.50;;
16669;SDS011;8448;52.034;5.158;2023-11-21T07:29:24;23.27;;;12.70;;
16669;SDS011;8448;52.034;5.158;2023-11-21T07:31:51;25.30;;;12.57;;
16669;SDS011;8448;52.034;5.158;2023-11-21T07:34:20;20.83;;;12.60;;
16669;SDS011;8448;52.034;5.158;2023-11-21T07:36:48;20.30;;;11.33;;
16669;SDS011;8448;52.034;5.158;2023-11-21T07:39:15;25.80;;;12.90;;
16669;SDS011;8448;52.034;5.158;2023-11-21T07:41:42;20.80;;;11.70;;
16669;SDS011;8448;52.034;5.158;2023-11-21T07:44:13;19.43;;;11.53;;
16669;SDS011;8448;52.034;5.158;2023-11-21T07:46:41;21.80;;;11.33;;
16669;SDS011;8448;52.034;5.158;2023-11-21T07:49:09;17.33;;;10.70;;
16669;SDS011;8448;52.034;5.158;2023-11-21T07:51:38;19.70;;;11.20;;
16669;SDS011;8448;52.034;5.158;2023-11-21T07:54:05;20.70;;;12.07;;
16669;SDS011;8448;52.034;5.158;2023-11-21T07:56:32;23.20;;;12.00;;
16669;SDS011;8448;52.034;5.158;2023-11-21T07:59:00;18.80;;;10.53;;
16669;SDS011;8448;52.034;5.158;2023-11-21T08:01:27;21.90;;;11.37;;
16669;SDS011;8448;52.034;5.158;2023-11-21T08:03:54;20.17;;;9.77;;
16669;SDS011;8448;52.034;5.158;2023-11-21T08:06:26;17.90;;;9.63;;
16669;SDS011;8448;52.034;5.158;2023-11-21T08:08:55;19.50;;;10.17;;
16669;SDS011;8448;52.034;5.158;2023-11-21T08:11:23;13.67;;;9.20;;
16669;SDS011;8448;52.034;5.158;2023-11-21T08:13:51;15.03;;;8.63;;
16669;SDS011;8448;52.034;5.158;2023-11-21T08:16:20;12.87;;;8.60;;
16669;SDS011;8448;52.034;5.158;2023-11-21T08:18:49;11.67;;;7.50;;
16669;SDS011;8448;52.034;5.158;2023-11-21T08:21:16;15.60;;;7.73;;
16669;SDS011;8448;52.034;5.158;2023-11-21T08:23:44;14.37;;;7.10;;
16669;SDS011;8448;52.034;5.158;2023-11-21T08:26:13;12.87;;;6.93;;
16669;SDS011;8448;52.034;5.158;2023-11-21T08:28:43;10.97;;;6.40;;
16669;SDS011;8448;52.034;5.158;2023-11-21T08:31:10;13.00;;;6.37;;
16669;SDS011;8448;52.034;5.158;2023-11-21T08:33:38;10.77;;;6.60;;
16669;SDS011;8448;52.034;5.158;2023-11-21T08:36:06;11.97;;;5.90;;
16669;SDS011;8448;52.034;5.158;2023-11-21T08:38:36;11.93;;;5.87;;
16669;SDS011;8448;52.034;5.158;2023-11-21T08:41:04;10.93;;;5.93;;
16669;SDS011;8448;52.034;5.158;2023-11-21T08:43:35;8.20;;;5.30;;
16669;SDS011;8448;52.034;5.158;2023-11-21T08:46:04;10.47;;;5.80;;
16669;SDS011;8448;52.034;5.158;2023-11-21T08:48:34;9.27;;;5.07;;
16669;SDS011;8448;52.034;5.158;2023-11-21T08:51:02;8.67;;;4.90;;
16669;SDS011;8448;52.034;5.158;2023-11-21T08:53:30;10.47;;;5.27;;
16669;SDS011;8448;52.034;5.158;2023-11-21T08:55:57;8.90;;;5.17;;
16669;SDS011;8448;52.034;5.158;2023-11-21T08:58:25;10.77;;;5.63;;
16669;SDS011;8448;52.034;5.158;2023-11-21T09:00:54;11.67;;;5.90;;
16669;SDS011;8448;52.034;5.158;2023-11-21T09:03:21;11.13;;;5.27;;
16669;SDS011;8448;52.034;5.158;2023-11-21T09:05:48;11.43;;;5.93;;
16669;SDS011;8448;52.034;5.158;2023-11-21T09:08:16;9.63;;;5.87;;
16669;SDS011;8448;52.034;5.158;2023-11-21T09:10:44;9.47;;;5.60;;
16669;SDS011;8448;52.034;5.158;2023-11-21T09:13:12;10.40;;;5.73;;
16669;SDS011;8448;52.034;5.158;2023-11-21T09:15:41;7.33;;;4.80;;
16669;SDS011;8448;52.034;5.158;2023-11-21T09:18:12;10.90;;;5.40;;
16669;SDS011;8448;52.034;5.158;2023-11-21T09:20:40;9.97;;;6.10;;
16669;SDS011;8448;52.034;5.158;2023-11-21T09:23:08;11.20;;;6.80;;
16669;SDS011;8448;52.034;5.158;2023-11-21T09:25:35;10.43;;;6.03;;
16669;SDS011;8448;52.034;5.158;2023-11-21T09:28:03;10.47;;;6.37;;
16669;SDS011;8448;52.034;5.158;2023-11-21T09:30:33;11.40;;;6.80;;
16669;SDS011;8448;52.034;5.158;2023-11-21T09:33:01;11.30;;;6.87;;
16669;SDS011;8448;52.034;5.158;2023-11-21T09:35:31;14.27;;;7.03;;
16669;SDS011;8448;52.034;5.158;2023-11-21T09:37:59;11.77;;;7.00;;
16669;SDS011;8448;52.034;5.158;2023-11-21T09:40:30;11.00;;;6.83;;
16669;SDS011;8448;52.034;5.158;2023-11-21T09:42:58;12.53;;;7.50;;
16669;SDS011;8448;52.034;5.158;2023-11-21T09:45:25;12.87;;;7.03;;
16669;SDS011;8448;52.034;5.158;2023-11-21T09:47:54;13.07;;;7.53;;
16669;SDS011;8448;52.034;5.158;2023-11-21T09:50:22;12.30;;;7.03;;
16669;SDS011;8448;52.034;5.158;2023-11-21T09:52:56;13.50;;;7.63;;
16669;SDS011;8448;52.034;5.158;2023-11-21T09:55:30;11.57;;;7.17;;
16669;SDS011;8448;52.034;5.158;2023-11-21T09:58:01;13.30;;;7.47;;
16669;SDS011;8448;52.034;5.158;2023-11-21T10:00:30;14.43;;;8.10;;
16669;SDS011;8448;52.034;5.158;2023-11-21T10:02:59;13.33;;;7.60;;
16669;SDS011;8448;52.034;5.158;2023-11-21T10:05:27;12.23;;;7.90;;
16669;SDS011;8448;52.034;5.158;2023-11-21T10:07:59;12.23;;;8.07;;
16669;SDS011;8448;52.034;5.158;2023-11-21T10:10:27;12.53;;;7.73;;
16669;SDS011;8448;52.034;5.158;2023-11-21T10:12:55;19.47;;;8.23;;
16669;SDS011;8448;52.034;5.158;2023-11-21T10:15:23;15.07;;;8.23;;
16669;SDS011;8448;52.034;5.158;2023-11-21T10:17:51;13.33;;;8.27;;
16669;SDS011;8448;52.034;5.158;2023-11-21T10:20:19;13.93;;;8.33;;
16669;SDS011;8448;52.034;5.158;2023-11-21T10:22:46;13.33;;;8.23;;
16669;SDS011;8448;52.034;5.158;2023-11-21T10:25:16;13.37;;;7.50;;
16669;SDS011;8448;52.034;5.158;2023-11-21T10:27:46;10.67;;;7.43;;
16669;SDS011;8448;52.034;5.158;2023-11-21T10:30:16;14.90;;;7.83;;
16669;SDS011;8448;52.034;5.158;2023-11-21T10:32:43;12.70;;;7.50;;
16669;SDS011;8448;52.034;5.158;2023-11-21T10:35:11;11.83;;;7.17;;
16669;SDS011;8448;52.034;5.158;2023-11-21T10:37:39;13.13;;;7.17;;
16669;SDS011;8448;52.034;5.158;2023-11-21T10:40:08;12.60;;;7.50;;
16669;SDS011;8448;52.034;5.158;2023-11-21T10:42:38;11.90;;;6.70;;
16669;SDS011;8448;52.034;5.158;2023-11-21T10:45:06;12.60;;;6.47;;
16669;SDS011;8448;52.034;5.158;2023-11-21T10:47:38;9.67;;;5.60;;
16669;SDS011;8448;52.034;5.158;2023-11-21T10:50:06;13.57;;;6.40;;
16669;SDS011;8448;52.034;5.158;2023-11-21T10:52:36;9.13;;;5.57;;
16669;SDS011;8448;52.034;5.158;2023-11-21T10:55:12;10.73;;;6.07;;
16669;SDS011;8448;52.034;5.158;2023-11-21T10:57:45;10.17;;;5.80;;
16669;SDS011;8448;52.034;5.158;2023-11-21T11:00:14;9.83;;;5.77;;
16669;SDS011;8448;52.034;5.158;2023-11-21T11:02:45;11.30;;;6.63;;
16669;SDS011;8448;52.034;5.158;2023-11-21T11:05:14;12.03;;;5.70;;
16669;SDS011;8448;52.034;5.158;2023-11-21T11:07:42;8.13;;;5.17;;
16669;SDS011;8448;52.034;5.158;2023-11-21T11:10:10;8.80;;;5.60;;
16669;SDS011;8448;52.034;5.158;2023-11-21T11:12:39;10.27;;;5.60;;
16669;SDS011;8448;52.034;5.158;2023-11-21T11:15:08;11.17;;;6.17;;
16669;SDS011;8448;52.034;5.158;2023-11-21T11:17:36;13.27;;;6.37;;
16669;SDS011;8448;52.034;5.158;2023-11-21T11:20:05;11.07;;;6.13;;
16669;SDS011;8448;52.034;5.158;2023-11-21T11:22:36;10.77;;;6.33;;
16669;SDS011;8448;52.034;5.158;2023-11-21T11:25:13;10.97;;;6.50;;
16669;SDS011;8448;52.034;5.158;2023-11-21T11:27:52;10.73;;;6.03;;
16669;SDS011;8448;52.034;5.158;2023-11-21T11:30:26;9.63;;;5.73;;
16669;SDS011;8448;52.034;5.158;2023-11-21T11:33:04;11.83;;;7.13;;
16669;SDS011;8448;52.034;5.158;2023-11-21T11:35:38;10.47;;;6.73;;
16669;SDS011;8448;52.034;5.158;2023-11-21T11:38:10;11.60;;;6.83;;
16669;SDS011;8448;52.034;5.158;2023-11-21T11:40:39;12.67;;;7.30;;
16669;SDS011;8448;52.034;5.158;2023-11-21T11:43:08;15.00;;;7.50;;
16669;SDS011;8448;52.034;5.158;2023-11-21T11:45:36;14.13;;;7.50;;
16669;SDS011;8448;52.034;5.158;2023-11-21T11:48:06;14.13;;;7.60;;
16669;SDS011;8448;52.034;5.158;2023-11-21T11:50:34;13.60;;;7.53;;
16669;SDS011;8448;52.034;5.158;2023-11-21T11:53:14;12.20;;;7.30;;
16669;SDS011;8448;52.034;5.158;2023-11-21T11:55:43;14.60;;;8.20;;
16669;SDS011;8448;52.034;5.158;2023-11-21T11:58:10;14.37;;;8.10;;
16669;SDS011;8448;52.034;5.158;2023-11-21T12:00:39;12.30;;;7.70;;
16669;SDS011;8448;52.034;5.158;2023-11-21T12:03:07;14.43;;;8.30;;
16669;SDS011;8448;52.034;5.158;2023-11-21T12:05:35;13.90;;;8.00;;
16669;SDS011;8448;52.034;5.158;2023-11-21T12:08:04;13.73;;;8.33;;
16669;SDS011;8448;52.034;5.158;2023-11-21T12:10:32;12.73;;;8.50;;
16669;SDS011;8448;52.034;5.158;2023-11-21T12:13:01;15.30;;;9.00;;
16669;SDS011;8448;52.034;5.158;2023-11-21T12:15:30;12.47;;;7.73;;
16669;SDS011;8448;52.034;5.158;2023-11-21T12:17:59;14.80;;;8.93;;
16669;SDS011;8448;52.034;5.158;2023-11-21T12:20:27;14.20;;;8.43;;
16669;SDS011;8448;52.034;5.158;2023-11-21T12:22:55;13.30;;;8.47;;
16669;SDS011;8448;52.034;5.158;2023-11-21T12:25:24;14.57;;;9.17;;
16669;SDS011;8448;52.034;5.158;2023-11-21T12:27:54;15.30;;;9.47;;
16669;SDS011;8448;52.034;5.158;2023-11-21T12:30:23;17.47;;;9.50;;
16669;SDS011;8448;52.034;5.158;2023-11-21T12:32:53;17.47;;;10.47;;
16669;SDS011;8448;52.034;5.158;2023-11-21T12:35:24;18.17;;;10.70;;
16669;SDS011;8448;52.034;5.158;2023-11-21T12:37:52;18.40;;;10.47;;
16669;SDS011;8448;52.034;5.158;2023-11-21T12:40:22;21.73;;;10.53;;
16669;SDS011;8448;52.034;5.158;2023-11-21T12:42:51;19.43;;;10.73;;
16669;SDS011;8448;52.034;5.158;2023-11-21T12:45:19;19.03;;;10.50;;
16669;SDS011;8448;52.034;5.158;2023-11-21T12:47:48;17.90;;;11.03;;
16669;SDS011;8448;52.034;5.158;2023-11-21T12:50:20;19.03;;;10.57;;
16669;SDS011;8448;52.034;5.158;2023-11-21T12:52:53;18.87;;;9.93;;
16669;SDS011;8448;52.034;5.158;2023-11-21T12:55:24;18.40;;;9.87;;
16669;SDS011;8448;52.034;5.158;2023-11-21T12:57:52;17.30;;;10.70;;
16669;SDS011;8448;52.034;5.158;2023-11-21T13:00:27;17.93;;;11.23;;
16669;SDS011;8448;52.034;5.158;2023-11-21T13:02:58;18.70;;;11.37;;
16669;SDS011;8448;52.034;5.158;2023-11-21T13:05:28;16.37;;;10.23;;
16669;SDS011;8448;52.034;5.158;2023-11-21T13:07:56;17.27;;;10.33;;
16669;SDS011;8448;52.034;5.158;2023-11-21T13:10:25;17.80;;;10.33;;
16669;SDS011;8448;52.034;5.158;2023-11-21T13:12:56;17.27;;;10.03;;
16669;SDS011;8448;52.034;5.158;2023-11-21T13:15:25;18.60;;;10.17;;
16669;SDS011;8448;52.034;5.158;2023-11-21T13:17:53;18.07;;;10.03;;
16669;SDS011;8448;52.034;5.158;2023-11-21T13:20:22;17.57;;;9.40;;
16669;SDS011;8448;52.034;5.158;2023-11-21T13:22:53;16.63;;;9.80;;
16669;SDS011;8448;52.034;5.158;2023-11-21T13:25:24;15.87;;;9.57;;
16669;SDS011;8448;52.034;5.158;2023-11-21T13:27:52;14.50;;;8.90;;
16669;SDS011;8448;52.034;5.158;2023-11-21T13:30:20;12.50;;;8.20;;
16669;SDS011;8448;52.034;5.158;2023-11-21T13:32:52;11.07;;;7.03;;
16669;SDS011;8448;52.034;5.158;2023-11-21T13:35:22;12.23;;;7.53;;
16669;SDS011;8448;52.034;5.158;2023-11-21T13:37:57;11.70;;;6.97;;
16669;SDS011;8448;52.034;5.158;2023-11-21T13:40:31;10.33;;;6.87;;
16669;SDS011;8448;52.034;5.158;2023-11-21T13:43:07;9.20;;;6.37;;
16669;SDS011;8448;52.034;5.158;2023-11-21T13:45:35;8.80;;;5.77;;
16669;SDS011;8448;52.034;5.158;2023-11-21T13:48:04;9.13;;;5.70;;
16669;SDS011;8448;52.034;5.158;2023-11-21T13:50:35;8.70;;;5.90;;
16669;SDS011;8448;52.034;5.158;2023-11-21T13:53:05;8.23;;;5.13;;
16669;SDS011;8448;52.034;5.158;2023-11-21T13:55:43;7.93;;;5.10;;
16669;SDS011;8448;52.034;5.158;2023-11-21T13:58:11;8.13;;;5.27;;
16669;SDS011;8448;52.034;5.158;2023-11-21T14:00:44;8.57;;;5.50;;
16669;SDS011;8448;52.034;5.158;2023-11-21T14:03:19;8.37;;;5.50;;
16669;SDS011;8448;52.034;5.158;2023-11-21T14:05:47;9.07;;;5.33;;
16669;SDS011;8448;52.034;5.158;2023-11-21T14:08:18;9.23;;;5.10;;
16669;SDS011;8448;52.034;5.158;2023-11-21T14:10:46;7.93;;;5.17;;
16669;SDS011;8448;52.034;5.158;2023-11-21T14:13:22;7.53;;;4.50;;
16669;SDS011;8448;52.034;5.158;2023-11-21T14:15:50;5.87;;;4.30;;
16669;SDS011;8448;52.034;5.158;2023-11-21T14:18:22;6.37;;;4.57;;
16669;SDS011;8448;52.034;5.158;2023-11-21T14:20:55;5.90;;;4.07;;
16669;SDS011;8448;52.034;5.158;2023-11-21T14:23:24;6.43;;;4.50;;
16669;SDS011;8448;52.034;5.158;2023-11-21T14:25:51;9.40;;;4.50;;
16669;SDS011;8448;52.034;5.158;2023-11-21T14:28:19;6.97;;;4.70;;
16669;SDS011;8448;52.034;5.158;2023-11-21T14:30:46;7.57;;;4.77;;
16669;SDS011;8448;52.034;5.158;2023-11-21T14:33:14;10.50;;;5.90;;
16669;SDS011;8448;52.034;5.158;2023-11-21T14:35:42;7.97;;;5.40;;
16669;SDS011;8448;52.034;5.158;2023-11-21T14:38:09;11.07;;;6.83;;
16669;SDS011;8448;52.034;5.158;2023-11-21T14:40:40;11.57;;;6.33;;
16669;SDS011;8448;52.034;5.158;2023-11-21T14:43:07;12.20;;;7.63;;
16669;SDS011;8448;52.034;5.158;2023-11-21T14:45:35;12.43;;;7.70;;
16669;SDS011;8448;52.034;5.158;2023-11-21T14:48:02;13.20;;;7.90;;
16669;SDS011;8448;52.034;5.158;2023-11-21T14:50:41;17.40;;;10.23;;